Terminal Aerodrome Forecast
Issued by NWS Dodge City, KS

Home | Current Version | Previous Version | Graphics & Text | Print | Product List | Glossary Off
Versions: 1 2 3 4 5 6 7 8 9 10 11 12 13 14 15 16 17

000
FTUS43 KDDC 171300 AAA
TAFDDC
TAF AMD
KDDC 171324Z 1713/1812 04011KT P6SM OVC070
      TEMPO 1713/1716 3SM -RA BR BKN009
     FM171800 15010KT P6SM SCT100=

USA.gov is the U.S. government's official web portal to all federal, state and local government web resources and services.